Time;durP1;ratioP1;P1;durP2;ratioP2;P2;SDS_P1;SDS_P2;PMS_P1;PMS_P2;Temp;Humidity;BMP_temperature;BMP_pressure;BME280_temperature;BME280_humidity;BME280_pressure;Samples;Min_cycle;Max_cycle;Signal;HPM_P1;HPM_P2
2021/07/20 00:00:42;;;;;;;;;;;16.60;99.90;;;;;;5084789;28;20015;-95
2021/07/20 00:03:10;;;;;;;;;;;16.60;99.90;;;;;;5092494;28;19924;-95
2021/07/20 00:05:38;;;;;;;;;;;16.60;99.90;;;;;;5072176;28;19951;-95
2021/07/20 00:08:05;;;;;;;;;;;16.60;99.90;;;;;;5089881;28;19924;-94
2021/07/20 00:10:35;;;;;;;;;;;16.70;99.90;;;;;;5106625;28;19923;-95
2021/07/20 00:13:02;;;;;;;;;;;16.70;99.90;;;;;;5109318;28;19923;-95
2021/07/20 00:15:28;;;;;;;;;;;16.80;99.90;;;;;;5092054;28;19919;-94
2021/07/20 00:17:55;;;;;;;;;;;16.70;99.90;;;;;;5091399;28;19919;-95
2021/07/20 00:20:21;;;;;;;;;;;16.70;99.90;;;;;;5096642;28;19924;-95
2021/07/20 00:22:48;;;;;;;;;;;16.80;99.90;;;;;;5094149;28;19924;-94
2021/07/20 00:25:14;;;;;;;;;;;16.70;99.90;;;;;;5092917;28;20018;-95
2021/07/20 00:27:40;;;;;;;;;;;16.80;99.90;;;;;;5112254;28;19947;-95
2021/07/20 00:30:07;;;;;;;;;;;16.60;99.90;;;;;;5102998;28;20368;-94
2021/07/20 00:32:32;;;;;;;;;;;16.60;99.90;;;;;;5080063;28;20329;-95
2021/07/20 00:34:58;;;;;;;;;;;16.60;99.90;;;;;;5111394;28;19972;-94
2021/07/20 00:37:24;;;;;;;;;;;16.60;99.90;;;;;;5109123;28;20299;-94
2021/07/20 00:39:50;;;;;;;;;;;16.70;99.90;;;;;;5103139;28;20378;-94
2021/07/20 00:42:15;;;;;;;;;;;16.60;99.90;;;;;;5094964;28;19931;-94
2021/07/20 00:44:41;;;;;;;;;;;16.60;99.90;;;;;;5112569;28;19928;-93
2021/07/20 00:47:07;;;;;;;;;;;16.60;99.90;;;;;;5079367;28;19969;-95
2021/07/20 00:49:33;;;;;;;;;;;16.60;99.90;;;;;;5086760;28;19931;-95
2021/07/20 00:51:59;;;;;;;;;;;16.60;99.90;;;;;;5112045;27;19926;-95
2021/07/20 00:54:25;;;;;;;;;;;16.60;99.90;;;;;;5082677;28;19967;-94
2021/07/20 00:56:51;;;;;;;;;;;16.50;99.90;;;;;;5093391;28;19978;-94
2021/07/20 00:59:17;;;;;;;;;;;16.50;99.90;;;;;;5084186;28;20293;-94
2021/07/20 01:01:43;;;;;;;;;;;16.50;99.90;;;;;;5069252;28;20011;-95
2021/07/20 01:04:08;;;;;;;;;;;16.50;99.90;;;;;;5079079;28;19955;-95
2021/07/20 01:06:35;;;;;;;;;;;16.50;99.90;;;;;;5064074;28;19934;-95
2021/07/20 01:09:05;;;;;;;;;;;16.60;99.90;;;;;;5095880;28;19931;-94
2021/07/20 01:11:32;;;;;;;;;;;16.50;99.90;;;;;;5111259;28;19923;-95
2021/07/20 01:14:01;;;;;;;;;;;16.60;99.90;;;;;;5090662;28;20207;-95
2021/07/20 01:16:30;;;;;;;;;;;16.60;99.90;;;;;;5111110;28;19919;-94
2021/07/20 01:18:56;;;;;;;;;;;16.60;99.90;;;;;;5112114;28;19966;-95
2021/07/20 01:21:25;;;;;;;;;;;16.50;99.90;;;;;;5088109;28;19955;-93
2021/07/20 01:23:52;;;;;;;;;;;16.50;99.90;;;;;;5113236;27;20010;-95
2021/07/20 01:26:18;;;;;;;;;;;16.50;99.90;;;;;;5094933;27;19924;-94
2021/07/20 01:28:45;;;;;;;;;;;16.60;99.90;;;;;;5149332;27;20328;-95
2021/07/20 01:31:12;;;;;;;;;;;16.60;99.90;;;;;;5131955;27;19919;-95
2021/07/20 01:33:43;;;;;;;;;;;16.70;99.90;;;;;;5149105;27;19924;-95
2021/07/20 01:36:09;;;;;;;;;;;16.70;99.90;;;;;;5113782;27;20557;-95
2021/07/20 01:38:36;;;;;;;;;;;16.70;99.90;;;;;;5114244;27;20006;-94
2021/07/20 01:41:06;;;;;;;;;;;16.80;99.90;;;;;;5131910;27;19927;-95
2021/07/20 01:43:33;;;;;;;;;;;16.80;99.90;;;;;;5111675;28;19926;-94
2021/07/20 01:46:00;;;;;;;;;;;16.90;99.90;;;;;;5125943;27;20014;-94
2021/07/20 01:48:28;;;;;;;;;;;17.00;99.90;;;;;;5114485;27;19923;-94
2021/07/20 01:50:56;;;;;;;;;;;17.00;99.90;;;;;;5115001;27;19923;-94
2021/07/20 01:53:22;;;;;;;;;;;17.10;99.90;;;;;;5114359;27;20014;-95
2021/07/20 01:55:48;;;;;;;;;;;17.10;99.90;;;;;;5081308;27;19990;-95
2021/07/20 01:58:14;;;;;;;;;;;17.10;99.90;;;;;;5094617;28;19963;-94
2021/07/20 02:00:40;;;;;;;;;;;17.10;99.90;;;;;;5094301;28;19968;-94
2021/07/20 02:08:30;;;;;;;;;;;17.00;99.90;;;;;;5132659;27;19928;-95
2021/07/20 02:10:59;;;;;;;;;;;17.00;99.90;;;;;;5131894;27;20012;-94
2021/07/20 02:13:25;;;;;;;;;;;17.00;99.90;;;;;;5131559;27;20358;-95
2021/07/20 02:15:51;;;;;;;;;;;17.10;99.90;;;;;;5125025;27;19923;-95
2021/07/20 02:18:19;;;;;;;;;;;17.10;99.90;;;;;;5093317;28;20026;-95
2021/07/20 02:20:45;;;;;;;;;;;17.10;99.90;;;;;;5114042;27;19953;-94
2021/07/20 02:23:11;;;;;;;;;;;17.00;99.90;;;;;;5148098;27;19962;-94
2021/07/20 02:25:38;;;;;;;;;;;17.10;99.90;;;;;;5129732;27;19963;-95
2021/07/20 02:28:05;;;;;;;;;;;17.10;99.90;;;;;;5111897;27;20018;-95
2021/07/20 02:30:31;;;;;;;;;;;17.10;99.90;;;;;;5079498;27;19930;-94
2021/07/20 02:33:04;;;;;;;;;;;17.10;99.90;;;;;;5098571;27;20056;-95
2021/07/20 02:35:31;;;;;;;;;;;17.10;99.90;;;;;;5076147;28;20346;-95
2021/07/20 02:37:57;;;;;;;;;;;17.10;99.90;;;;;;5110553;28;19923;-95
2021/07/20 02:40:27;;;;;;;;;;;17.10;99.90;;;;;;5080277;27;19920;-95
2021/07/20 02:42:55;;;;;;;;;;;17.10;99.90;;;;;;5109319;27;20315;-94
2021/07/20 02:45:21;;;;;;;;;;;17.10;99.90;;;;;;5109910;27;19962;-94
2021/07/20 02:47:48;;;;;;;;;;;17.10;99.90;;;;;;5092349;28;20355;-94
2021/07/20 02:50:15;;;;;;;;;;;17.20;99.90;;;;;;5079813;27;19919;-95
2021/07/20 02:52:42;;;;;;;;;;;17.20;99.90;;;;;;5096512;27;19923;-94
2021/07/20 02:55:09;;;;;;;;;;;17.20;99.90;;;;;;5096316;27;19919;-94
2021/07/20 02:57:36;;;;;;;;;;;17.20;99.90;;;;;;5092878;28;19928;-94
2021/07/20 03:00:04;;;;;;;;;;;17.30;99.90;;;;;;5096942;27;20368;-94
2021/07/20 03:02:33;;;;;;;;;;;17.30;99.90;;;;;;5130554;27;19924;-95
2021/07/20 03:04:59;;;;;;;;;;;17.30;99.90;;;;;;5130330;27;19923;-94
2021/07/20 03:07:27;;;;;;;;;;;17.20;99.90;;;;;;5096576;27;20404;-95
2021/07/20 03:09:53;;;;;;;;;;;17.30;99.90;;;;;;5147591;27;20458;-94
2021/07/20 03:12:21;;;;;;;;;;;17.20;99.90;;;;;;5093963;27;20007;-94
2021/07/20 03:14:47;;;;;;;;;;;17.20;99.90;;;;;;5124083;27;19919;-94
2021/07/20 03:17:13;;;;;;;;;;;17.20;99.90;;;;;;5095226;27;19980;-94
2021/07/20 03:19:40;;;;;;;;;;;17.20;99.90;;;;;;5076497;27;19946;-94
2021/07/20 03:22:08;;;;;;;;;;;17.20;99.90;;;;;;5096508;27;19929;-95
2021/07/20 03:24:36;;;;;;;;;;;17.10;99.90;;;;;;5095415;27;19929;-94
2021/07/20 03:27:03;;;;;;;;;;;17.10;99.90;;;;;;5092167;28;19931;-95
2021/07/20 03:29:29;;;;;;;;;;;17.10;99.90;;;;;;5112707;27;19923;-94
2021/07/20 03:31:55;;;;;;;;;;;17.10;99.90;;;;;;5092857;28;19924;-95
2021/07/20 03:34:21;;;;;;;;;;;17.10;99.90;;;;;;5114632;27;19923;-94
2021/07/20 03:36:48;;;;;;;;;;;17.00;99.90;;;;;;5078554;27;20026;-95
2021/07/20 03:39:14;;;;;;;;;;;17.00;99.90;;;;;;5095757;28;19930;-94
2021/07/20 03:41:41;;;;;;;;;;;17.10;99.90;;;;;;5096449;28;19908;-93
2021/07/20 03:44:07;;;;;;;;;;;17.00;99.90;;;;;;5095960;28;19966;-94
2021/07/20 03:46:33;;;;;;;;;;;17.00;99.90;;;;;;5111509;27;19970;-93
2021/07/20 03:48:59;;;;;;;;;;;17.00;99.90;;;;;;5147039;27;19919;-92
2021/07/20 03:51:25;;;;;;;;;;;17.00;99.90;;;;;;5096225;28;19962;-94
2021/07/20 03:53:51;;;;;;;;;;;17.00;99.90;;;;;;5112527;28;20010;-95
2021/07/20 03:56:18;;;;;;;;;;;17.00;99.90;;;;;;5113654;27;19973;-94
2021/07/20 03:58:45;;;;;;;;;;;17.00;99.90;;;;;;5099941;27;20381;-94
2021/07/20 04:01:12;;;;;;;;;;;17.00;99.90;;;;;;5083933;27;19924;-94
2021/07/20 04:03:38;;;;;;;;;;;16.90;99.90;;;;;;5099372;27;19980;-94
2021/07/20 04:06:06;;;;;;;;;;;16.90;99.90;;;;;;5133163;27;20289;-94
2021/07/20 04:08:33;;;;;;;;;;;16.90;99.90;;;;;;5151279;27;19931;-94
2021/07/20 04:11:00;;;;;;;;;;;16.90;99.90;;;;;;5100449;27;19923;-94
2021/07/20 04:13:26;;;;;;;;;;;16.90;99.90;;;;;;5113313;28;19924;-94
2021/07/20 04:15:54;;;;;;;;;;;16.90;99.90;;;;;;5114848;27;19934;-93
2021/07/20 04:18:20;;;;;;;;;;;17.00;99.90;;;;;;5116654;27;19926;-94
2021/07/20 04:20:46;;;;;;;;;;;17.00;99.90;;;;;;5116514;27;20357;-93
2021/07/20 04:23:13;;;;;;;;;;;17.10;99.90;;;;;;5096763;28;19924;-95
2021/07/20 04:25:42;;;;;;;;;;;17.10;99.90;;;;;;5113564;27;19952;-95
2021/07/20 04:28:08;;;;;;;;;;;17.10;99.90;;;;;;5114753;27;19923;-95
2021/07/20 04:30:36;;;;;;;;;;;17.10;99.90;;;;;;5116809;27;19927;-94
2021/07/20 04:33:02;;;;;;;;;;;17.10;99.90;;;;;;5099654;27;19924;-95
2021/07/20 04:35:31;;;;;;;;;;;17.00;99.90;;;;;;5112566;28;20399;-94
2021/07/20 04:37:57;;;;;;;;;;;17.00;99.90;;;;;;5099358;27;20015;-94
2021/07/20 04:40:23;;;;;;;;;;;16.90;99.90;;;;;;5116608;27;19924;-94
2021/07/20 04:42:49;;;;;;;;;;;16.90;99.90;;;;;;5116401;27;19930;-94
2021/07/20 04:45:15;;;;;;;;;;;16.80;99.90;;;;;;5133699;27;19931;-94
2021/07/20 04:47:41;;;;;;;;;;;16.80;99.90;;;;;;5149627;27;20389;-94
2021/07/20 04:50:08;;;;;;;;;;;16.80;99.90;;;;;;5098719;27;19924;-94
2021/07/20 04:52:34;;;;;;;;;;;16.70;99.90;;;;;;5098867;27;19927;-94
2021/07/20 04:55:01;;;;;;;;;;;16.70;99.90;;;;;;5150788;27;19919;-94
2021/07/20 04:57:27;;;;;;;;;;;16.70;99.90;;;;;;5111413;28;19919;-93
2021/07/20 04:59:54;;;;;;;;;;;16.60;99.90;;;;;;5082472;27;19938;-93
2021/07/20 05:02:20;;;;;;;;;;;16.60;99.90;;;;;;5133330;27;19920;-94
2021/07/20 05:04:46;;;;;;;;;;;16.60;99.90;;;;;;5115803;27;19984;-95
2021/07/20 05:07:13;;;;;;;;;;;16.50;99.90;;;;;;5131740;27;19928;-94
2021/07/20 05:09:39;;;;;;;;;;;16.50;99.90;;;;;;5149462;27;19924;-94
2021/07/20 05:12:06;;;;;;;;;;;16.40;99.90;;;;;;5099524;27;20291;-94
2021/07/20 05:14:33;;;;;;;;;;;16.40;99.90;;;;;;5097610;27;19962;-92
2021/07/20 05:16:59;;;;;;;;;;;16.40;99.90;;;;;;5114250;27;19923;-93
2021/07/20 05:19:25;;;;;;;;;;;16.40;99.90;;;;;;5098407;27;20423;-94
2021/07/20 05:21:50;;;;;;;;;;;16.40;99.90;;;;;;5095076;28;19920;-94
2021/07/20 05:24:16;;;;;;;;;;;16.40;99.90;;;;;;5098315;27;19924;-95
2021/07/20 05:26:45;;;;;;;;;;;16.40;99.90;;;;;;5097564;27;19927;-94
2021/07/20 05:29:19;;;;;;;;;;;16.40;99.90;;;;;;5095504;28;19973;-94
2021/07/20 05:31:46;;;;;;;;;;;16.50;99.90;;;;;;5149190;27;19919;-94
2021/07/20 05:34:13;;;;;;;;;;;16.50;99.90;;;;;;5115513;27;20067;-95
2021/07/20 05:36:39;;;;;;;;;;;16.50;99.90;;;;;;5113572;27;19924;-94
2021/07/20 05:39:05;;;;;;;;;;;16.60;99.90;;;;;;5133445;27;19926;-94
2021/07/20 05:41:30;;;;;;;;;;;16.60;99.90;;;;;;5094525;28;20306;-94
2021/07/20 05:43:57;;;;;;;;;;;16.70;99.90;;;;;;5114794;27;19924;-94
2021/07/20 05:46:25;;;;;;;;;;;16.80;99.90;;;;;;5095815;27;20048;-94
2021/07/20 05:48:52;;;;;;;;;;;16.80;99.90;;;;;;5081092;27;20063;-94
2021/07/20 05:51:19;;;;;;;;;;;16.80;99.90;;;;;;5115355;27;19925;-94
2021/07/20 05:53:44;;;;;;;;;;;16.80;99.90;;;;;;5114307;27;19923;-94
2021/07/20 05:56:10;;;;;;;;;;;16.70;99.90;;;;;;5096786;27;19933;-94
2021/07/20 05:58:36;;;;;;;;;;;16.70;99.90;;;;;;5094200;28;19923;-94
2021/07/20 06:01:03;;;;;;;;;;;16.70;99.90;;;;;;5081135;27;20023;-94
2021/07/20 06:03:32;;;;;;;;;;;16.70;99.90;;;;;;5111257;28;20383;-94
2021/07/20 06:05:58;;;;;;;;;;;16.70;99.90;;;;;;5097270;27;19967;-94
2021/07/20 06:08:25;;;;;;;;;;;16.70;99.90;;;;;;5112028;27;20000;-94
2021/07/20 06:10:52;;;;;;;;;;;16.80;99.90;;;;;;5131337;27;19928;-94
2021/07/20 06:13:18;;;;;;;;;;;16.80;99.90;;;;;;5114753;27;19927;-94
2021/07/20 06:15:45;;;;;;;;;;;16.80;99.90;;;;;;5097068;27;19923;-94
2021/07/20 06:18:11;;;;;;;;;;;16.80;99.90;;;;;;5131358;27;19966;-94
2021/07/20 06:20:37;;;;;;;;;;;16.80;99.90;;;;;;5128447;27;20402;-94
2021/07/20 06:23:03;;;;;;;;;;;16.80;99.90;;;;;;5094212;28;19930;-94
2021/07/20 06:25:30;;;;;;;;;;;16.90;99.90;;;;;;5130656;27;19953;-94
2021/07/20 06:27:57;;;;;;;;;;;16.90;99.90;;;;;;5114020;27;19923;-94
2021/07/20 06:30:23;;;;;;;;;;;16.90;99.90;;;;;;5148532;27;20267;-94
2021/07/20 06:32:50;;;;;;;;;;;16.90;99.90;;;;;;5114854;27;20387;-94
2021/07/20 06:35:17;;;;;;;;;;;17.00;99.90;;;;;;5147986;27;19923;-94
2021/07/20 06:37:44;;;;;;;;;;;17.00;99.90;;;;;;5112836;27;19930;-94
2021/07/20 06:40:15;;;;;;;;;;;17.00;99.90;;;;;;5109629;28;19966;-94
2021/07/20 06:42:41;;;;;;;;;;;17.00;99.90;;;;;;5077257;28;19994;-94
2021/07/20 06:45:08;;;;;;;;;;;17.10;99.90;;;;;;5110485;28;19935;-93
2021/07/20 06:47:39;;;;;;;;;;;17.10;99.90;;;;;;5113239;27;19954;-93
2021/07/20 06:50:06;;;;;;;;;;;17.10;99.90;;;;;;5096290;27;19919;-92
2021/07/20 06:52:32;;;;;;;;;;;17.20;99.90;;;;;;5113499;27;20389;-92
2021/07/20 06:55:00;;;;;;;;;;;17.10;99.90;;;;;;5079111;27;19923;-91
2021/07/20 06:57:26;;;;;;;;;;;17.20;99.90;;;;;;5087776;27;19934;-91
2021/07/20 06:59:54;;;;;;;;;;;17.20;99.90;;;;;;5095730;27;19927;-92
2021/07/20 07:02:21;;;;;;;;;;;17.20;99.90;;;;;;5112430;27;20000;-92
2021/07/20 07:04:49;;;;;;;;;;;17.30;99.90;;;;;;5147410;27;20374;-92
2021/07/20 07:07:16;;;;;;;;;;;17.30;99.90;;;;;;5112117;27;19988;-92
2021/07/20 07:09:42;;;;;;;;;;;17.30;99.90;;;;;;5130887;27;20370;-93
2021/07/20 07:12:08;;;;;;;;;;;17.40;99.90;;;;;;5112788;27;19922;-93
2021/07/20 07:14:35;;;;;;;;;;;17.40;99.90;;;;;;5095947;27;19920;-93
2021/07/20 07:17:03;;;;;;;;;;;17.40;99.90;;;;;;5078826;27;19916;-93
2021/07/20 07:19:29;;;;;;;;;;;17.40;99.90;;;;;;5130102;27;19923;-93
2021/07/20 07:21:55;;;;;;;;;;;17.50;99.90;;;;;;5094246;27;19955;-94
2021/07/20 07:24:21;;;;;;;;;;;17.50;99.90;;;;;;5095662;27;19966;-92
2021/07/20 07:26:48;;;;;;;;;;;17.50;99.90;;;;;;5097761;27;19931;-93
2021/07/20 07:29:15;;;;;;;;;;;17.50;99.90;;;;;;5148314;27;19946;-93
2021/07/20 07:31:43;;;;;;;;;;;17.60;99.90;;;;;;5098853;27;20315;-93
2021/07/20 07:34:09;;;;;;;;;;;17.60;99.90;;;;;;5112143;28;20355;-93
2021/07/20 07:36:35;;;;;;;;;;;17.60;99.90;;;;;;5111883;27;19979;-93
2021/07/20 07:39:05;;;;;;;;;;;17.70;99.90;;;;;;5096214;27;20389;-93
2021/07/20 07:41:38;;;;;;;;;;;17.70;99.90;;;;;;5111779;27;19923;-93
2021/07/20 07:44:09;;;;;;;;;;;17.70;99.90;;;;;;5112899;27;20385;-93
2021/07/20 07:46:36;;;;;;;;;;;17.70;99.90;;;;;;5111689;28;19959;-94
2021/07/20 07:49:02;;;;;;;;;;;17.80;99.90;;;;;;5095369;28;20195;-95
2021/07/20 07:51:28;;;;;;;;;;;17.80;99.90;;;;;;5104699;27;19924;-92
2021/07/20 07:53:58;;;;;;;;;;;17.90;99.90;;;;;;5108562;28;19924;-94
2021/07/20 07:56:25;;;;;;;;;;;17.90;99.90;;;;;;5075610;28;19924;-94
2021/07/20 07:58:51;;;;;;;;;;;17.90;99.90;;;;;;5141025;27;19927;-94
2021/07/20 08:01:17;;;;;;;;;;;18.00;99.90;;;;;;5112842;27;19923;-93
2021/07/20 08:03:45;;;;;;;;;;;18.00;99.90;;;;;;5084724;28;19923;-94
2021/07/20 08:06:19;;;;;;;;;;;18.00;99.90;;;;;;5108505;28;20382;-94
2021/07/20 08:08:45;;;;;;;;;;;18.00;99.90;;;;;;5092142;28;20560;-93
2021/07/20 08:11:12;;;;;;;;;;;18.10;99.90;;;;;;5082401;28;20014;-94
2021/07/20 08:13:39;;;;;;;;;;;18.10;99.90;;;;;;5095579;28;19923;-94
2021/07/20 08:16:05;;;;;;;;;;;18.10;99.90;;;;;;5142956;27;20026;-93
2021/07/20 08:18:31;;;;;;;;;;;18.10;99.90;;;;;;5127871;28;19934;-93
2021/07/20 08:21:05;;;;;;;;;;;18.20;99.90;;;;;;5107442;28;19916;-94
2021/07/20 08:23:31;;;;;;;;;;;18.20;99.90;;;;;;5093791;28;19927;-93
2021/07/20 08:25:59;;;;;;;;;;;18.20;99.90;;;;;;5142179;27;19988;-93
2021/07/20 08:28:48;;;;;;;;;;;18.20;99.90;;;;;;5108782;28;20297;-94
2021/07/20 08:31:14;;;;;;;;;;;18.30;99.90;;;;;;5080068;28;20116;-93
2021/07/20 08:33:43;;;;;;;;;;;18.30;99.90;;;;;;5108940;28;19978;-94
2021/07/20 08:36:11;;;;;;;;;;;18.30;99.90;;;;;;5107330;28;20909;-93
2021/07/20 08:38:38;;;;;;;;;;;18.30;99.90;;;;;;5129082;28;19931;-93
2021/07/20 08:41:06;;;;;;;;;;;18.40;99.90;;;;;;5129262;28;20278;-94
2021/07/20 08:43:50;;;;;;;;;;;18.50;99.90;;;;;;5110323;28;19924;-94
2021/07/20 08:46:18;;;;;;;;;;;18.50;99.90;;;;;;5115158;27;20011;-93
2021/07/20 08:49:03;;;;;;;;;;;18.50;99.90;;;;;;5099010;27;20111;-93
2021/07/20 08:51:50;;;;;;;;;;;18.50;99.90;;;;;;5108970;27;19924;-93
2021/07/20 08:54:23;;;;;;;;;;;18.60;99.90;;;;;;5115425;27;19923;-93
2021/07/20 08:56:50;;;;;;;;;;;18.60;99.90;;;;;;5098595;27;19938;-93
2021/07/20 08:59:19;;;;;;;;;;;18.60;99.90;;;;;;5132573;27;19919;-93
2021/07/20 09:02:03;;;;;;;;;;;18.70;99.90;;;;;;5154421;27;19929;-93
2021/07/20 09:04:29;;;;;;;;;;;18.70;99.90;;;;;;5112131;27;19927;-94
2021/07/20 09:06:59;;;;;;;;;;;18.70;99.90;;;;;;5115148;27;19930;-92
2021/07/20 09:09:33;;;;;;;;;;;18.70;99.90;;;;;;5149738;27;20282;-93
2021/07/20 09:12:04;;;;;;;;;;;18.80;99.90;;;;;;5115202;27;19923;-94
2021/07/20 09:14:39;;;;;;;;;;;18.80;99.90;;;;;;5114969;27;19924;-93
2021/07/20 09:17:19;;;;;;;;;;;18.80;99.90;;;;;;5111472;28;20014;-94
2021/07/20 09:19:50;;;;;;;;;;;18.90;99.90;;;;;;5115820;27;19942;-94
2021/07/20 09:22:17;;;;;;;;;;;19.00;99.90;;;;;;5098368;27;19920;-94
2021/07/20 09:24:43;;;;;;;;;;;19.00;99.90;;;;;;5149525;27;19966;-93
2021/07/20 09:27:11;;;;;;;;;;;19.00;99.90;;;;;;5109890;28;19974;-95
2021/07/20 09:29:38;;;;;;;;;;;19.10;99.90;;;;;;5107577;27;19924;-93
2021/07/20 09:32:22;;;;;;;;;;;19.10;99.90;;;;;;5111978;28;19934;-94
2021/07/20 09:34:57;;;;;;;;;;;19.10;99.90;;;;;;5104902;28;19916;-93
2021/07/20 09:37:26;;;;;;;;;;;19.20;99.90;;;;;;5075992;28;19924;-93
2021/07/20 09:39:55;;;;;;;;;;;19.30;99.90;;;;;;5111168;28;19928;-93
2021/07/20 09:42:41;;;;;;;;;;;19.30;99.90;;;;;;5095331;28;19992;-93
2021/07/20 09:45:19;;;;;;;;;;;19.30;99.90;;;;;;5109114;28;19927;-94
2021/07/20 09:48:04;;;;;;;;;;;19.30;99.90;;;;;;5110793;28;19924;-94
2021/07/20 09:50:33;;;;;;;;;;;19.40;99.90;;;;;;5095683;28;20003;-93
2021/07/20 09:53:14;;;;;;;;;;;19.30;99.90;;;;;;5111636;28;20026;-93
2021/07/20 09:56:05;;;;;;;;;;;19.40;99.90;;;;;;5107471;28;19923;-93
2021/07/20 09:58:44;;;;;;;;;;;19.40;99.90;;;;;;5091502;28;19920;-94
2021/07/20 10:01:17;;;;;;;;;;;19.40;99.90;;;;;;5097579;28;20018;-94
2021/07/20 10:03:49;;;;;;;;;;;19.40;99.90;;;;;;5099960;28;19923;-93
2021/07/20 10:06:18;;;;;;;;;;;19.40;99.90;;;;;;5126347;27;20374;-93
2021/07/20 10:08:47;;;;;;;;;;;19.50;99.90;;;;;;5103139;28;20362;-93
2021/07/20 10:11:37;;;;;;;;;;;19.50;99.90;;;;;;5108966;28;19924;-93
2021/07/20 10:14:22;;;;;;;;;;;19.50;99.90;;;;;;5090680;28;19992;-94
2021/07/20 10:16:57;;;;;;;;;;;19.50;99.90;;;;;;5110673;28;20353;-93
2021/07/20 10:19:44;;;;;;;;;;;19.50;99.90;;;;;;5101676;28;20014;-93
2021/07/20 10:22:12;;;;;;;;;;;19.60;99.90;;;;;;5094530;28;19931;-94
2021/07/20 10:24:41;;;;;;;;;;;19.60;99.90;;;;;;5093713;28;19927;-94
2021/07/20 10:27:15;;;;;;;;;;;19.70;99.90;;;;;;5127066;27;20313;-92
2021/07/20 10:29:46;;;;;;;;;;;19.70;99.90;;;;;;5097501;27;19962;-93
2021/07/20 10:32:16;;;;;;;;;;;19.70;99.90;;;;;;5114354;27;19923;-94
2021/07/20 10:34:45;;;;;;;;;;;19.80;99.90;;;;;;5113964;27;19927;-93
2021/07/20 10:37:20;;;;;;;;;;;19.90;99.90;;;;;;5113006;27;19919;-94
2021/07/20 10:39:54;;;;;;;;;;;19.90;99.90;;;;;;5131013;27;19927;-94
2021/07/20 10:42:26;;;;;;;;;;;20.00;99.90;;;;;;5148326;27;20327;-94
2021/07/20 10:45:06;;;;;;;;;;;20.00;99.90;;;;;;5110366;28;20036;-93
2021/07/20 10:47:36;;;;;;;;;;;20.00;99.90;;;;;;5103645;27;19930;-93
2021/07/20 10:50:04;;;;;;;;;;;20.00;99.90;;;;;;5132201;27;19968;-93
2021/07/20 10:52:36;;;;;;;;;;;20.00;99.90;;;;;;5151797;27;19923;-94
2021/07/20 10:55:08;;;;;;;;;;;20.10;99.90;;;;;;5113846;27;19947;-93
2021/07/20 10:57:38;;;;;;;;;;;20.10;99.90;;;;;;5112600;27;19923;-93
2021/07/20 11:00:11;;;;;;;;;;;20.10;99.90;;;;;;5147810;27;19945;-93
2021/07/20 11:02:43;;;;;;;;;;;20.10;99.90;;;;;;5097118;27;19929;-94
2021/07/20 11:05:09;;;;;;;;;;;20.10;99.90;;;;;;5147409;27;19930;-93
2021/07/20 11:07:38;;;;;;;;;;;20.20;99.90;;;;;;5095336;27;19924;-93
2021/07/20 11:10:10;;;;;;;;;;;20.20;99.90;;;;;;5147156;27;20366;-93
2021/07/20 11:12:37;;;;;;;;;;;20.30;99.90;;;;;;5096885;27;19962;-93
2021/07/20 11:15:03;;;;;;;;;;;20.30;99.90;;;;;;5129338;27;20017;-94
2021/07/20 11:17:30;;;;;;;;;;;20.30;99.90;;;;;;5091183;27;19934;-94
2021/07/20 11:20:01;;;;;;;;;;;20.40;99.90;;;;;;5112735;27;22667;-93
2021/07/20 11:22:28;;;;;;;;;;;20.50;99.90;;;;;;5110226;28;19930;-93
2021/07/20 11:24:54;;;;;;;;;;;20.60;99.90;;;;;;5091800;28;20293;-93
2021/07/20 11:27:21;;;;;;;;;;;20.60;99.90;;;;;;5129019;27;19928;-94
2021/07/20 11:29:48;;;;;;;;;;;20.70;99.90;;;;;;5147393;27;19988;-93
2021/07/20 11:32:18;;;;;;;;;;;20.80;99.90;;;;;;5096632;27;20003;-93
2021/07/20 11:34:46;;;;;;;;;;;20.80;99.90;;;;;;5113155;27;19919;-93
2021/07/20 11:37:15;;;;;;;;;;;20.80;99.90;;;;;;5130590;27;19972;-93
2021/07/20 11:39:45;;;;;;;;;;;20.90;99.90;;;;;;5112720;27;20343;-93
2021/07/20 11:42:14;;;;;;;;;;;20.90;99.90;;;;;;5112988;28;19923;-94
2021/07/20 11:44:43;;;;;;;;;;;20.90;99.90;;;;;;5147078;27;19924;-94
2021/07/20 11:47:23;;;;;;;;;;;20.90;99.90;;;;;;5119126;27;20370;-93
2021/07/20 11:49:49;;;;;;;;;;;20.80;99.90;;;;;;5095453;27;21451;-93
2021/07/20 11:52:16;;;;;;;;;;;20.80;99.90;;;;;;5096887;28;19959;-94
2021/07/20 11:54:49;;;;;;;;;;;20.90;99.90;;;;;;5147113;27;20063;-93
2021/07/20 11:57:21;;;;;;;;;;;20.90;99.90;;;;;;5111495;28;19927;-94
2021/07/20 12:00:04;;;;;;;;;;;20.90;99.90;;;;;;5112442;28;19923;-93
2021/07/20 12:02:36;;;;;;;;;;;21.10;99.90;;;;;;5096048;28;19919;-93
2021/07/20 12:05:02;;;;;;;;;;;21.10;99.90;;;;;;5111930;28;19931;-94
2021/07/20 12:07:30;;;;;;;;;;;21.10;99.90;;;;;;5095392;28;19927;-93
2021/07/20 12:10:07;;;;;;;;;;;21.10;99.90;;;;;;5129789;28;20014;-93
2021/07/20 12:12:53;;;;;;;;;;;21.10;99.90;;;;;;5109377;28;20443;-93
2021/07/20 12:15:21;;;;;;;;;;;21.10;99.90;;;;;;5108771;28;19955;-92
2021/07/20 12:17:47;;;;;;;;;;;21.10;99.90;;;;;;5093669;28;19996;-92
2021/07/20 12:20:14;;;;;;;;;;;21.20;99.90;;;;;;5115800;27;20286;-91
2021/07/20 12:22:40;;;;;;;;;;;21.30;99.90;;;;;;5117193;27;19919;-92
2021/07/20 12:25:06;;;;;;;;;;;21.30;99.90;;;;;;5134676;27;19949;-92
2021/07/20 12:27:36;;;;;;;;;;;21.40;99.90;;;;;;5115450;27;19934;-92
2021/07/20 12:30:03;;;;;;;;;;;21.40;99.90;;;;;;5150846;27;19927;-91
2021/07/20 12:32:30;;;;;;;;;;;21.50;99.90;;;;;;5135051;27;19924;-92
2021/07/20 12:35:00;;;;;;;;;;;21.50;99.90;;;;;;5098905;27;19919;-91
2021/07/20 12:37:25;;;;;;;;;;;21.40;99.90;;;;;;5142517;27;20445;-92
2021/07/20 12:39:55;;;;;;;;;;;21.40;99.90;;;;;;5124089;27;19972;-92
2021/07/20 12:42:22;;;;;;;;;;;21.40;99.90;;;;;;5116492;27;19964;-91
2021/07/20 12:45:04;;;;;;;;;;;21.40;99.90;;;;;;5135964;27;19968;-92
2021/07/20 12:47:36;;;;;;;;;;;21.40;99.90;;;;;;5087808;27;20010;-90
2021/07/20 12:50:03;;;;;;;;;;;21.30;99.90;;;;;;5098545;27;20320;-92
2021/07/20 12:52:29;;;;;;;;;;;21.40;99.90;;;;;;5112767;28;19919;-92
2021/07/20 12:54:54;;;;;;;;;;;21.30;99.90;;;;;;5095804;28;19973;-91
2021/07/20 12:57:20;;;;;;;;;;;21.30;99.90;;;;;;5098366;27;19923;-92
2021/07/20 12:59:46;;;;;;;;;;;21.40;99.90;;;;;;5098772;27;19975;-92
2021/07/20 13:02:15;;;;;;;;;;;21.40;99.90;;;;;;5081797;27;20027;-92
2021/07/20 13:04:47;;;;;;;;;;;21.50;99.90;;;;;;5116153;27;19924;-92
2021/07/20 13:07:12;;;;;;;;;;;21.50;99.90;;;;;;5115364;27;20230;-92
2021/07/20 13:09:38;;;;;;;;;;;21.40;99.90;;;;;;5118157;27;20010;-92
2021/07/20 13:12:04;;;;;;;;;;;21.40;99.90;;;;;;5081867;27;19923;-91
2021/07/20 13:14:35;;;;;;;;;;;21.40;99.90;;;;;;5132668;27;19928;-92
2021/07/20 13:17:02;;;;;;;;;;;21.40;99.90;;;;;;5112304;27;19951;-92
2021/07/20 13:19:29;;;;;;;;;;;21.40;99.90;;;;;;5133954;27;20263;-91
2021/07/20 13:21:55;;;;;;;;;;;21.40;99.90;;;;;;5111909;28;19919;-92
2021/07/20 13:24:24;;;;;;;;;;;21.40;99.90;;;;;;5095895;27;19923;-92
2021/07/20 13:26:51;;;;;;;;;;;21.40;99.90;;;;;;5111304;28;19928;-92
2021/07/20 13:29:17;;;;;;;;;;;21.40;99.90;;;;;;5094752;27;19924;-92
2021/07/20 13:31:43;;;;;;;;;;;21.40;99.90;;;;;;5081610;27;19976;-92
2021/07/20 13:34:13;;;;;;;;;;;21.40;99.90;;;;;;5131836;27;19923;-92
2021/07/20 13:36:40;;;;;;;;;;;21.40;99.90;;;;;;5094321;28;19920;-92
2021/07/20 13:39:10;;;;;;;;;;;21.40;99.90;;;;;;5113374;27;19972;-91
2021/07/20 13:41:37;;;;;;;;;;;21.40;99.90;;;;;;5115162;27;19915;-92
2021/07/20 13:44:03;;;;;;;;;;;21.50;99.90;;;;;;5111529;28;19931;-92
2021/07/20 13:46:30;;;;;;;;;;;21.50;99.90;;;;;;5094982;27;20337;-93
2021/07/20 13:48:57;;;;;;;;;;;21.50;99.90;;;;;;5111155;28;19927;-93
2021/07/20 13:51:25;;;;;;;;;;;21.60;99.90;;;;;;5115037;27;20369;-93
2021/07/20 13:53:57;;;;;;;;;;;21.60;99.90;;;;;;5086901;27;19973;-94
2021/07/20 13:56:29;;;;;;;;;;;21.60;99.90;;;;;;5132278;27;19927;-95
2021/07/20 13:58:57;;;;;;;;;;;21.60;99.90;;;;;;5114302;27;19995;-94
2021/07/20 14:01:23;;;;;;;;;;;21.70;99.90;;;;;;5149301;27;19923;-94
2021/07/20 14:03:50;;;;;;;;;;;21.70;99.90;;;;;;5148328;27;20313;-94
2021/07/20 14:06:15;;;;;;;;;;;21.70;99.90;;;;;;5093463;28;20014;-93
2021/07/20 14:08:43;;;;;;;;;;;21.80;99.90;;;;;;5110927;28;20046;-93
2021/07/20 14:11:08;;;;;;;;;;;21.80;99.90;;;;;;5097808;27;20041;-94
2021/07/20 14:13:35;;;;;;;;;;;21.80;99.90;;;;;;5097455;27;20264;-93
2021/07/20 14:16:01;;;;;;;;;;;21.80;99.90;;;;;;5108485;27;19919;-93
2021/07/20 14:18:31;;;;;;;;;;;21.80;99.90;;;;;;5112248;27;19929;-92
2021/07/20 14:20:59;;;;;;;;;;;21.70;99.90;;;;;;5081130;27;19968;-93
2021/07/20 14:23:25;;;;;;;;;;;21.80;99.90;;;;;;5114320;27;20267;-93
2021/07/20 14:25:52;;;;;;;;;;;21.80;99.90;;;;;;5078813;27;19945;-93
2021/07/20 14:28:19;;;;;;;;;;;21.80;99.90;;;;;;5113778;27;19927;-94